createdAt,value
2023-10-20T00:02:17.450Z,14.05
2023-10-20T00:07:42.140Z,13.59
2023-10-20T00:13:05.851Z,13.55
2023-10-20T00:18:28.994Z,13.88
2023-10-20T00:23:53.374Z,14.20
2023-10-20T00:29:16.423Z,14.17
2023-10-20T00:34:39.773Z,14.26
2023-10-20T00:40:09.257Z,12.58
2023-10-20T00:45:32.464Z,12.30
2023-10-20T00:50:55.700Z,11.92
2023-10-20T00:56:20.628Z,12.14
2023-10-20T01:01:43.647Z,12.77
2023-10-20T01:07:06.690Z,12.95
2023-10-20T01:12:31.037Z,12.93
2023-10-20T01:17:54.225Z,12.82
2023-10-20T01:23:17.356Z,12.09
2023-10-20T01:28:41.702Z,11.98
2023-10-20T01:34:04.832Z,11.95
2023-10-20T01:39:27.833Z,12.20
2023-10-20T01:44:52.157Z,12.63
2023-10-20T01:50:15.345Z,12.80
2023-10-20T01:55:40.561Z,12.91
2023-10-20T02:01:05.147Z,12.10
2023-10-20T02:06:28.284Z,12.75
2023-10-20T02:11:51.400Z,13.11
2023-10-20T02:17:15.870Z,12.13
2023-10-20T02:22:39.155Z,12.26
2023-10-20T02:28:02.119Z,12.40
2023-10-20T02:33:27.017Z,12.48
2023-10-20T02:38:53.135Z,12.71
2023-10-20T02:44:16.166Z,12.71
2023-10-20T02:49:40.516Z,12.11
2023-10-20T02:55:05.608Z,12.03
2023-10-20T03:00:28.609Z,11.87
2023-10-20T03:05:52.914Z,12.05
2023-10-20T03:11:15.943Z,12.77
2023-10-20T03:16:43.839Z,11.71
2023-10-20T03:22:09.271Z,11.61
2023-10-20T03:27:34.125Z,11.49
2023-10-20T03:32:57.308Z,11.27
2023-10-20T03:38:21.704Z,11.64
2023-10-20T03:43:45.716Z,11.81
2023-10-20T03:49:12.638Z,11.94
2023-10-20T03:54:37.545Z,11.98
2023-10-20T04:00:16.030Z,12.17
2023-10-20T04:05:39.844Z,11.58
2023-10-20T04:11:04.315Z,11.91
2023-10-20T04:16:28.920Z,11.03
2023-10-20T04:21:52.029Z,11.51
2023-10-20T04:27:23.001Z,11.03
2023-10-20T04:33:06.996Z,10.79
2023-10-20T04:38:47.597Z,10.84
2023-10-20T04:44:29.497Z,10.80
2023-10-20T04:50:18.565Z,10.84
2023-10-20T04:56:07.540Z,11.46
2023-10-20T05:01:42.141Z,10.99
2023-10-20T05:07:07.351Z,11.19
2023-10-20T05:12:30.529Z,11.45
2023-10-20T05:22:42.525Z,11.38
2023-10-20T05:28:08.632Z,10.94
2023-10-20T05:33:31.626Z,10.63
2023-10-20T05:38:55.923Z,11.02
2023-10-20T05:44:23.449Z,10.49
2023-10-20T05:49:46.631Z,10.55
2023-10-20T05:55:11.265Z,10.67
2023-10-20T06:00:45.957Z,10.47
2023-10-20T06:06:17.951Z,10.44
2023-10-20T06:11:43.272Z,10.57
2023-10-20T06:17:06.941Z,10.69
2023-10-20T06:22:30.097Z,10.64
2023-10-20T06:27:54.528Z,10.32
2023-10-20T06:33:20.476Z,10.42
2023-10-20T06:38:46.604Z,10.35
2023-10-20T06:44:11.146Z,10.27
2023-10-20T06:49:34.897Z,10.32
2023-10-20T06:55:28.946Z,10.30
2023-10-20T07:00:42.836Z,10.25
2023-10-20T07:06:08.716Z,10.37
2023-10-20T07:11:33.773Z,10.60
2023-10-20T07:16:58.755Z,10.76
2023-10-20T07:22:23.277Z,10.72
2023-10-20T07:27:47.715Z,10.46
2023-10-20T07:33:12.169Z,10.29
2023-10-20T07:38:35.292Z,10.33
2023-10-20T07:44:00.174Z,10.10
2023-10-20T07:49:24.398Z,9.87
2023-10-20T07:54:47.350Z,9.82
2023-10-20T08:00:14.615Z,10.37
2023-10-20T08:05:39.760Z,10.00
2023-10-20T08:11:05.869Z,9.92
2023-10-20T08:16:29.948Z,10.40
2023-10-20T08:21:54.766Z,10.46
2023-10-20T08:27:19.740Z,10.24
2023-10-20T08:32:43.523Z,10.44
2023-10-20T08:38:08.224Z,10.29
2023-10-20T08:43:31.338Z,10.32
2023-10-20T08:48:55.245Z,10.35
2023-10-20T08:54:21.066Z,10.15
2023-10-20T08:59:52.554Z,10.46
2023-10-20T09:05:22.184Z,10.19
2023-10-20T09:10:47.805Z,10.70
2023-10-20T09:16:12.278Z,10.89
2023-10-20T09:21:35.460Z,10.37
2023-10-20T09:27:01.020Z,10.21
2023-10-20T09:32:24.212Z,10.02
2023-10-20T09:37:54.188Z,9.94
2023-10-20T09:43:26.449Z,9.93
2023-10-20T09:48:53.886Z,9.95
2023-10-20T09:54:20.159Z,10.09
2023-10-20T09:59:44.594Z,10.76
2023-10-20T10:05:11.250Z,10.47
2023-10-20T10:10:34.535Z,10.02
2023-10-20T10:15:59.826Z,10.03
2023-10-20T10:21:26.011Z,10.17
2023-10-20T10:26:52.364Z,10.32
2023-10-20T10:32:20.386Z,10.60
2023-10-20T10:37:43.954Z,10.22
2023-10-20T10:43:07.006Z,10.01
2023-10-20T10:48:33.694Z,10.04
2023-10-20T10:53:56.798Z,10.34
2023-10-20T10:59:20.826Z,10.37
2023-10-20T11:04:46.039Z,10.79
2023-10-20T11:10:10.665Z,10.84
2023-10-20T11:15:34.745Z,10.21
2023-10-20T11:21:01.629Z,9.94
2023-10-20T11:26:26.233Z,9.73
2023-10-20T11:31:49.345Z,9.77
2023-10-20T11:37:15.504Z,10.05
2023-10-20T11:42:38.499Z,9.48
2023-10-20T11:48:01.663Z,9.60
2023-10-20T11:53:26.285Z,9.73
2023-10-20T11:58:49.309Z,-146.03
2023-10-20T12:04:12.775Z,-146.03
2023-10-20T12:09:37.188Z,-146.03
2023-10-20T12:15:01.507Z,-146.03
2023-10-20T12:20:24.874Z,-146.03
2023-10-20T12:25:49.345Z,-146.03
2023-10-20T12:31:12.796Z,-146.03
2023-10-20T12:36:37.090Z,-146.03
2023-10-20T12:42:04.263Z,-146.03
2023-10-20T12:47:27.371Z,-146.03
2023-10-20T12:52:51.435Z,-146.03
2023-10-20T12:58:17.513Z,-146.03
2023-10-20T13:03:40.684Z,-146.03
2023-10-20T13:09:03.927Z,-146.03
2023-10-20T13:14:29.461Z,-146.03
2023-10-20T13:19:52.692Z,-146.03
2023-10-20T13:25:15.746Z,-146.03
2023-10-20T13:30:40.215Z,-146.03
2023-10-20T13:36:04.522Z,-146.03
2023-10-20T13:41:27.539Z,-146.03
2023-10-20T13:46:52.141Z,-146.03
2023-10-20T13:52:15.178Z,-146.03
2023-10-20T13:57:38.135Z,-146.03
2023-10-20T14:03:02.988Z,-146.03
2023-10-20T14:08:26.052Z,-146.03
2023-10-20T14:13:49.177Z,-146.03
2023-10-20T14:19:13.486Z,-146.03
2023-10-20T14:24:36.561Z,-146.03
2023-10-20T14:29:59.503Z,-146.03
2023-10-20T14:35:24.043Z,-146.03
2023-10-20T14:40:47.088Z,-146.03
2023-10-20T14:46:11.101Z,-146.03
2023-10-20T14:52:03.524Z,-146.03
2023-10-20T14:57:26.686Z,-146.03
2023-10-20T15:02:50.117Z,-146.03
2023-10-20T15:08:14.759Z,-146.03
2023-10-20T15:13:38.042Z,-146.03
2023-10-20T15:19:01.119Z,-146.03
2023-10-20T15:24:25.637Z,-146.03
2023-10-20T15:29:48.767Z,-146.03
2023-10-20T15:35:12.122Z,-146.03
2023-10-20T15:40:36.459Z,-146.03
2023-10-20T15:46:00.650Z,-146.03
2023-10-20T15:51:23.987Z,-146.03
2023-10-20T15:56:52.324Z,-146.03
2023-10-20T16:02:15.462Z,-146.03
2023-10-20T16:07:38.562Z,-146.03
2023-10-20T16:13:03.194Z,-146.03
2023-10-20T16:18:26.338Z,-146.03
2023-10-20T16:23:49.697Z,-146.03
2023-10-20T16:29:14.162Z,-146.03
2023-10-20T16:34:37.205Z,-146.03
2023-10-20T16:40:01.628Z,-146.03
2023-10-20T16:45:26.087Z,-146.03
2023-10-20T16:50:57.892Z,-146.03
2023-10-20T16:56:21.299Z,-146.03
2023-10-20T17:01:46.283Z,-146.03
2023-10-20T17:07:09.897Z,-146.03
2023-10-20T17:12:33.106Z,-146.03
2023-10-20T17:17:57.741Z,-146.03
2023-10-20T17:23:20.761Z,-146.03
2023-10-20T17:28:44.147Z,-146.03
2023-10-20T17:34:08.525Z,-146.03
2023-10-20T17:39:32.113Z,-146.03
2023-10-20T17:44:55.132Z,-146.03
2023-10-20T17:50:19.683Z,-146.03
2023-10-20T17:55:43.349Z,-146.03
2023-10-20T18:01:10.098Z,-146.03
2023-10-20T18:06:35.283Z,-146.03
2023-10-20T18:11:58.268Z,-146.03
2023-10-20T18:17:21.259Z,-146.03
2023-10-20T18:22:46.107Z,-146.03
2023-10-20T18:28:09.344Z,-146.03
2023-10-20T18:33:32.488Z,-146.03
2023-10-20T18:38:56.964Z,-146.03
2023-10-20T18:44:19.995Z,-146.03
2023-10-20T18:49:43.283Z,-146.03
2023-10-20T18:55:10.489Z,-146.03
2023-10-20T19:00:33.773Z,-146.03
2023-10-20T19:05:57.336Z,-146.03
2023-10-20T19:11:22.302Z,-146.03
2023-10-20T19:16:45.129Z,-146.03
2023-10-20T19:22:08.264Z,-146.03
2023-10-20T19:27:32.602Z,-146.03
2023-10-20T19:32:55.870Z,-146.03
2023-10-20T19:38:19.033Z,-146.03
2023-10-20T19:43:45.238Z,-146.03
2023-10-20T19:49:08.208Z,-146.03
2023-10-20T19:54:31.282Z,-146.03
2023-10-20T19:59:55.796Z,-146.03
2023-10-20T20:05:18.857Z,-146.03
2023-10-20T20:10:41.885Z,-146.03
2023-10-20T20:16:10.807Z,-146.03
2023-10-20T20:21:33.928Z,-146.03
2023-10-20T20:26:57.183Z,-146.03
2023-10-20T20:32:21.588Z,-146.03
2023-10-20T20:37:44.732Z,-146.03
2023-10-20T20:43:09.660Z,-146.03
2023-10-20T20:48:34.071Z,-146.03
2023-10-20T20:53:57.201Z,-146.03
2023-10-20T20:59:20.199Z,-146.03
2023-10-20T21:04:45.151Z,-146.03
2023-10-20T21:10:09.390Z,-146.03
2023-10-20T21:15:32.391Z,-146.03
2023-10-20T21:20:56.782Z,-146.03
2023-10-20T21:26:19.885Z,-146.03
2023-10-20T21:31:42.890Z,-146.03
2023-10-20T21:37:07.223Z,-146.03
2023-10-20T21:42:30.292Z,-146.03
2023-10-20T21:47:53.566Z,-146.03
2023-10-20T21:53:18.635Z,-146.03
2023-10-20T21:58:42.610Z,-146.03
2023-10-20T22:04:06.091Z,-146.03
2023-10-20T22:09:38.231Z,-146.03
2023-10-20T22:15:10.562Z,-146.03
2023-10-20T22:20:33.687Z,-146.03
2023-10-20T22:25:58.407Z,-146.03
2023-10-20T22:31:21.520Z,-146.03
2023-10-20T22:36:44.674Z,-146.03
2023-10-20T22:42:09.077Z,-146.03
2023-10-20T22:47:33.427Z,-146.03
2023-10-20T22:52:56.585Z,-146.03
2023-10-20T22:58:21.148Z,-146.03
2023-10-20T23:03:44.381Z,-146.03
2023-10-20T23:09:07.763Z,-146.03
2023-10-20T23:14:32.087Z,-146.03
2023-10-20T23:19:57.891Z,-146.03
2023-10-20T23:25:20.995Z,-146.03
2023-10-20T23:30:45.362Z,-146.03
2023-10-20T23:36:08.552Z,-146.03
2023-10-20T23:41:31.693Z,-146.03
2023-10-20T23:46:56.592Z,-146.03
2023-10-20T23:52:19.500Z,-146.03
2023-10-20T23:57:44.947Z,-146.03
